AST,Max TemperatureF,Mean TemperatureF,Min TemperatureF,Max Dew PointF,MeanDew PointF,Min DewpointF,Max Humidity, Mean Humidity, Min Humidity, Max Sea Level PressureIn, Mean Sea Level PressureIn, Min Sea Level PressureIn, Max VisibilityMiles, Mean VisibilityMiles, Min VisibilityMiles, Max Wind SpeedMPH, Mean Wind SpeedMPH, Max Gust SpeedMPH,PrecipitationIn, CloudCover, Events, WindDirDegrees
2012-10-1,94,84,74,79,76,73,84,68,44,30.01,29.95,29.92,10,7,6,18,6,,0.00,2,,95
2012-10-2,91,82,73,77,76,73,94,74,56,30.06,30.02,29.98,10,7,6,17,7,,0.00,2,Thunderstorm,95
2012-10-3,92,84,75,79,74,36,96,76,16,30.12,30.06,30.01,10,7,3,21,5,,0.02,3,Rain-Thunderstorm,109
2012-10-4,90,81,72,79,75,73,100,76,56,30.09,30.02,29.95,10,7,6,18,4,,0.35,2,Rain,88
2012-10-5,88,80,72,77,75,71,97,81,60,29.99,29.93,29.86,10,7,4,12,4,,0.08,3,Rain,39
2012-10-6,87,78,70,79,75,72,94,80,66,29.91,29.85,29.80,10,7,6,12,5,,0.00,3,,6
2012-10-7,89,80,71,79,75,73,89,77,62,29.94,29.88,29.80,10,7,5,9,2,,0.00,3,Rain-Thunderstorm,61
2012-10-8,95,82,70,81,75,72,100,76,53,30.01,29.96,29.89,10,7,6,14,3,,0.00,4,,123
2012-10-9,94,83,72,79,75,71,100,74,54,30.02,29.98,29.92,10,7,3,16,4,,0.00,2,Thunderstorm,112
2012-10-10,90,80,71,79,76,71,94,78,63,30.01,29.96,29.89,10,7,6,15,4,,0.00,4,Fog,65
2012-10-11,91,81,71,79,76,72,100,76,53,29.99,29.93,29.86,10,7,6,18,5,,0.00,2,Thunderstorm,85
2012-10-12,95,84,73,79,75,70,94,69,44,29.98,29.92,29.83,10,7,6,17,7,,0.04,1,,105
2012-10-13,90,82,73,79,77,72,94,76,61,29.95,29.89,29.83,10,6,5,12,4,,0.39,2,Rain,56
2012-10-14,88,80,73,81,78,75,100,85,68,29.91,29.84,29.80,10,6,5,12,2,,0.39,4,Rain-Thunderstorm,326
2012-10-15,88,82,77,79,77,75,94,80,65,29.82,29.74,29.68,10,7,5,14,7,,0.08,3,Rain,323
2012-10-16,90,82,73,79,77,74,94,76,59,29.86,29.77,29.56,10,7,6,12,7,,0.51,2,Thunderstorm,312
2012-10-17,89,80,72,79,77,73,97,82,67,29.93,29.88,29.83,10,7,6,12,2,,0.00,2,Rain-Thunderstorm,7
2012-10-18,93,82,72,81,77,73,94,78,56,29.95,29.89,29.83,10,8,6,16,3,,0.00,2,Thunderstorm,56
2012-10-19,91,82,72,81,77,73,100,78,63,29.92,29.88,29.83,10,7,6,15,5,,0.00,2,,111
2012-10-20,91,82,73,79,77,73,94,75,59,29.94,29.88,29.80,10,7,6,17,5,,0.00,3,,104
2012-10-21,91,81,71,79,75,73,96,77,57,29.95,29.88,29.80,10,7,5,12,5,,0.16,3,Rain,108
2012-10-22,87,79,71,79,76,73,94,82,67,29.90,29.85,29.80,10,7,4,18,5,,0.02,4,Rain-Thunderstorm,107
2012-10-23,86,77,68,77,75,72,100,84,72,29.89,29.81,29.56,10,6,3,14,5,,0.47,6,Rain,109
2012-10-24,80,76,71,75,73,70,100,85,74,29.84,29.78,29.70,10,6,5,16,6,,0.03,8,Rain,125
2012-10-25,81,78,75,75,73,71,94,81,66,29.76,29.68,29.62,10,6,4,129,11,,0.04,7,Rain,120
2012-10-26,86,82,77,77,75,73,94,82,71,29.92,29.68,29.62,10,6,5,14,3,,0.04,7,Rain,144
2012-10-27,89,82,74,81,77,73,100,80,59,29.80,29.72,29.68,10,7,6,12,4,,0.00,2,,64
2012-10-28,87,79,71,75,73,68,100,72,52,29.85,29.78,29.74,10,7,6,17,6,,0.00,2,,3
2012-10-29,86,80,73,74,73,70,94,74,59,29.89,29.84,29.80,10,7,6,9,3,,0.00,2,,14
2012-10-30,86,80,73,79,76,73,100,79,69,29.95,29.91,29.83,10,7,5,9,3,,0.00,3,,7
2012-10-31,91,82,72,77,74,72,95,84,71,30.01,29.95,29.92,10,7,5,7,1,,0.02,4,Rain-Thunderstorm,33